Terminal Aerodrome Forecast
Issued by NWS

Home | Current Version | Previous Version | Text Only | Print | Product List | Glossary On
Versions: 1 2 3 4 5 6 7 8 9 10 11 12
000
FTUS46 KHNX 030525
TAFVIS
TAF
KVIS 030525Z 0306/0406 34007KT P6SM SKC
     FM030900 VRB03KT P6SM SKC
     FM032100 31007KT P6SM SKC=

USA.gov is the U.S. government's official web portal to all federal, state and local government web resources and services.